Time;durP1;ratioP1;P1;durP2;ratioP2;P2;SDS_P1;SDS_P2;PMS_P1;PMS_P2;Temp;Humidity;BMP_temperature;BMP_pressure;BME280_temperature;BME280_humidity;BME280_pressure;Samples;Min_cycle;Max_cycle;Signal;HPM_P1;HPM_P2
2023/09/14 00:00:32;;;;;;;3.63;3.33;;;23.30;65.10;;;;;;5016469;28;20216;-86
2023/09/14 00:03:18;;;;;;;3.40;3.20;;;23.30;65.20;;;;;;5016427;28;20701;-86
2023/09/14 00:05:48;;;;;;;3.67;3.38;;;23.30;65.20;;;;;;5016167;28;20188;-86
2023/09/14 00:08:15;;;;;;;3.30;3.10;;;23.30;65.20;;;;;;5014298;28;20201;-86
2023/09/14 00:10:43;;;;;;;3.22;3.03;;;23.20;65.10;;;;;;5014122;28;20595;-86
2023/09/14 00:13:11;;;;;;;3.55;3.25;;;23.20;65.20;;;;;;5014363;28;20207;-86
2023/09/14 00:15:39;;;;;;;3.63;3.33;;;23.20;65.10;;;;;;5013994;28;20284;-86
2023/09/14 00:18:06;;;;;;;3.60;3.30;;;23.30;65.20;;;;;;5014191;28;20295;-86
2023/09/14 00:20:34;;;;;;;3.50;3.20;;;23.20;65.10;;;;;;5013998;28;20287;-86
2023/09/14 00:23:03;;;;;;;3.45;3.20;;;23.20;65.10;;;;;;5014637;28;20201;-86
2023/09/14 00:25:30;;;;;;;3.35;3.15;;;23.10;65.00;;;;;;5013717;28;20643;-86
2023/09/14 00:27:58;;;;;;;3.53;3.20;;;23.20;65.10;;;;;;5013753;28;20220;-86
2023/09/14 00:30:25;;;;;;;3.47;2.90;;;23.20;65.10;;;;;;5013497;28;20238;-86
2023/09/14 00:32:53;;;;;;;3.30;3.10;;;23.20;65.10;;;;;;5013519;28;20205;-86
2023/09/14 00:35:20;;;;;;;3.30;3.03;;;23.20;65.00;;;;;;5014269;28;20205;-85
2023/09/14 00:37:47;;;;;;;3.60;3.30;;;23.20;65.00;;;;;;5017618;28;20185;-86
2023/09/14 00:40:15;;;;;;;2.72;2.53;;;23.20;65.00;;;;;;5018155;28;20224;-86
2023/09/14 00:42:42;;;;;;;3.10;2.90;;;23.20;64.90;;;;;;5018009;28;20197;-86
2023/09/14 00:45:12;;;;;;;3.40;3.15;;;23.20;64.90;;;;;;5021800;28;20686;-85
2023/09/14 00:47:40;;;;;;;3.08;2.88;;;23.10;64.70;;;;;;5021678;28;20582;-86
2023/09/14 00:50:07;;;;;;;3.50;3.20;;;23.20;64.90;;;;;;5002983;28;20220;-86
2023/09/14 00:52:35;;;;;;;3.42;3.13;;;23.30;65.00;;;;;;5019949;28;20208;-86
2023/09/14 00:55:02;;;;;;;2.85;2.65;;;23.20;64.90;;;;;;5020412;28;20197;-86
2023/09/14 00:57:30;;;;;;;3.20;3.00;;;23.20;64.90;;;;;;5019167;28;20192;-86
2023/09/14 00:59:57;;;;;;;3.00;2.80;;;23.20;64.90;;;;;;5020394;28;20683;-86
2023/09/14 01:05:11;;;;;;;3.38;3.08;;;23.20;64.90;;;;;;5033100;28;20568;-79
2023/09/14 01:07:39;;;;;;;3.25;2.97;;;23.20;64.90;;;;;;5016751;28;20208;-79
2023/09/14 01:10:09;;;;;;;3.22;3.03;;;23.10;64.80;;;;;;5028155;28;20211;-79
2023/09/14 01:12:36;;;;;;;3.35;3.05;;;23.20;64.90;;;;;;5052560;28;20252;-79
2023/09/14 01:15:07;;;;;;;3.00;2.80;;;23.20;65.00;;;;;;5052761;28;20206;-79
2023/09/14 01:17:39;;;;;;;3.15;2.95;;;23.20;65.00;;;;;;5052950;28;20642;-79
2023/09/14 01:20:16;;;;;;;2.90;2.70;;;23.20;65.00;;;;;;5052574;28;20262;-79
2023/09/14 01:22:47;;;;;;;3.10;2.90;;;23.20;65.00;;;;;;5052701;28;20224;-78
2023/09/14 01:25:19;;;;;;;2.90;2.70;;;23.20;65.00;;;;;;5052685;28;20641;-78
2023/09/14 01:27:48;;;;;;;2.92;2.72;;;23.10;64.90;;;;;;5052376;28;20215;-78
2023/09/14 01:30:15;;;;;;;3.17;2.97;;;23.10;65.00;;;;;;5035739;28;20628;-78
2023/09/14 01:32:42;;;;;;;3.15;2.95;;;23.20;65.00;;;;;;5052542;28;20199;-78
2023/09/14 01:35:09;;;;;;;3.40;3.10;;;23.10;65.00;;;;;;5052584;28;20195;-78
2023/09/14 01:37:36;;;;;;;3.35;3.05;;;23.20;65.10;;;;;;5037080;28;20236;-78
2023/09/14 01:40:06;;;;;;;3.40;3.10;;;23.10;65.00;;;;;;5052150;28;20234;-78
2023/09/14 01:42:34;;;;;;;3.10;2.90;;;23.10;65.00;;;;;;5052500;28;20603;-78
2023/09/14 01:45:03;;;;;;;3.30;3.00;;;23.10;65.00;;;;;;5036693;28;20199;-78
2023/09/14 01:47:31;;;;;;;3.10;2.90;;;23.10;65.00;;;;;;5052284;28;20259;-78
2023/09/14 01:49:58;;;;;;;3.00;2.80;;;23.10;65.00;;;;;;5052261;28;20220;-78
2023/09/14 01:52:25;;;;;;;3.13;2.92;;;23.10;65.00;;;;;;5052081;28;20286;-78
2023/09/14 01:54:52;;;;;;;3.30;3.00;;;23.10;65.10;;;;;;5052339;28;20676;-78
2023/09/14 01:57:20;;;;;;;2.85;2.65;;;23.10;65.10;;;;;;5052961;28;20284;-78
2023/09/14 01:59:47;;;;;;;3.28;3.05;;;23.10;65.10;;;;;;5055852;28;20215;-78
2023/09/14 02:02:16;;;;;;;3.00;2.80;;;23.00;65.00;;;;;;5056190;28;20230;-78
2023/09/14 02:04:44;;;;;;;3.15;2.95;;;23.10;65.10;;;;;;5055851;28;20546;-78
2023/09/14 02:07:11;;;;;;;2.95;2.75;;;23.10;65.20;;;;;;5057141;28;20227;-78
2023/09/14 02:09:38;;;;;;;2.72;2.53;;;23.10;65.20;;;;;;5056079;28;20215;-78
2023/09/14 02:12:06;;;;;;;3.08;2.88;;;23.00;65.10;;;;;;5056221;28;20191;-78
2023/09/14 02:14:33;;;;;;;2.72;2.53;;;23.00;65.20;;;;;;5056461;28;20207;-78
2023/09/14 02:17:00;;;;;;;2.90;2.70;;;23.00;65.20;;;;;;5055763;28;20196;-78
2023/09/14 02:19:28;;;;;;;3.22;2.92;;;23.00;65.20;;;;;;5055661;28;20219;-78
2023/09/14 02:21:55;;;;;;;2.88;2.67;;;23.00;65.20;;;;;;5038838;28;20207;-78
2023/09/14 02:24:22;;;;;;;3.03;2.83;;;23.10;65.30;;;;;;5055432;28;20203;-78
2023/09/14 02:26:51;;;;;;;2.72;2.53;;;23.00;65.20;;;;;;5055331;28;20247;-78
2023/09/14 02:29:18;;;;;;;2.83;2.63;;;23.00;65.20;;;;;;5055409;28;20269;-78
2023/09/14 02:31:46;;;;;;;2.50;2.40;;;23.00;65.20;;;;;;5055286;28;20222;-78
2023/09/14 02:34:13;;;;;;;3.30;2.90;;;23.00;65.20;;;;;;5055230;28;20202;-78
2023/09/14 02:36:41;;;;;;;2.63;2.42;;;23.00;65.20;;;;;;5055308;28;20199;-78
2023/09/14 02:39:08;;;;;;;2.92;2.72;;;23.10;65.30;;;;;;5055206;28;20314;-78
2023/09/14 02:41:36;;;;;;;2.75;2.55;;;23.00;65.20;;;;;;5038684;28;20657;-78
2023/09/14 02:44:02;;;;;;;2.90;2.70;;;23.00;65.20;;;;;;5055930;28;20200;-78
2023/09/14 02:46:29;;;;;;;2.83;2.63;;;23.10;65.30;;;;;;5055337;28;20203;-78
2023/09/14 02:48:56;;;;;;;2.92;2.63;;;23.00;65.20;;;;;;5055146;28;20192;-78
2023/09/14 02:51:24;;;;;;;2.90;2.70;;;23.10;65.30;;;;;;5055395;28;20219;-78
2023/09/14 02:53:52;;;;;;;2.88;2.67;;;23.00;65.20;;;;;;5055215;28;20278;-78
2023/09/14 02:56:19;;;;;;;2.80;2.60;;;23.00;65.20;;;;;;5055240;28;20211;-78
2023/09/14 02:58:46;;;;;;;3.20;2.90;;;23.00;65.20;;;;;;5055195;28;20199;-78
2023/09/14 03:01:13;;;;;;;2.78;2.58;;;23.00;65.20;;;;;;5039708;28;20199;-78
2023/09/14 03:03:41;;;;;;;3.03;2.83;;;23.00;65.20;;;;;;5055600;28;20215;-78
2023/09/14 03:06:08;;;;;;;2.80;2.60;;;23.00;65.20;;;;;;5055809;28;20195;-78
2023/09/14 03:08:35;;;;;;;3.28;3.03;;;23.00;65.20;;;;;;5054466;28;20191;-78
2023/09/14 03:11:04;;;;;;;2.55;2.35;;;23.00;65.20;;;;;;5054724;28;20318;-78
2023/09/14 03:13:32;;;;;;;2.92;2.72;;;23.00;65.10;;;;;;5055187;28;20249;-78
2023/09/14 03:16:00;;;;;;;2.72;2.53;;;23.10;65.10;;;;;;5054694;28;20233;-78
2023/09/14 03:18:27;;;;;;;2.88;2.67;;;23.10;65.00;;;;;;5054791;28;20289;-78
2023/09/14 03:20:55;;;;;;;2.83;2.63;;;23.10;64.70;;;;;;5054856;28;20257;-78
2023/09/14 03:23:22;;;;;;;2.88;2.67;;;23.20;64.60;;;;;;5054687;28;20210;-78
2023/09/14 03:25:50;;;;;;;3.10;2.90;;;23.20;64.40;;;;;;5055170;28;20666;-78
2023/09/14 03:28:19;;;;;;;3.05;2.85;;;23.30;64.20;;;;;;5038423;28;20666;-78
2023/09/14 03:30:48;;;;;;;2.40;2.30;;;23.40;64.00;;;;;;5054347;28;20219;-78
2023/09/14 03:33:15;;;;;;;2.90;2.70;;;23.40;63.70;;;;;;5054256;28;20282;-78
2023/09/14 03:35:42;;;;;;;2.67;2.47;;;23.50;63.60;;;;;;5054626;28;20198;-78
2023/09/14 03:38:09;;;;;;;3.15;2.85;;;23.50;63.40;;;;;;5054032;28;20207;-78
2023/09/14 03:40:36;;;;;;;2.53;2.33;;;23.50;63.40;;;;;;5054069;28;20219;-78
2023/09/14 03:43:04;;;;;;;2.90;2.70;;;23.50;63.30;;;;;;5037576;28;20601;-78
2023/09/14 03:45:32;;;;;;;2.67;2.47;;;23.50;63.20;;;;;;5053956;28;20195;-78
2023/09/14 03:48:00;;;;;;;2.80;2.60;;;23.50;63.10;;;;;;5053982;28;20685;-78
2023/09/14 03:50:27;;;;;;;2.33;2.20;;;23.60;63.10;;;;;;5054059;28;20223;-78
2023/09/14 03:52:54;;;;;;;2.58;2.38;;;23.60;63.00;;;;;;5054029;28;20598;-78
2023/09/14 03:55:21;;;;;;;2.88;2.67;;;23.60;63.00;;;;;;5053955;28;20195;-78
2023/09/14 03:57:48;;;;;;;2.63;2.42;;;23.60;62.90;;;;;;5054331;28;20199;-78
2023/09/14 04:00:17;;;;;;;2.70;2.50;;;23.60;62.90;;;;;;5054436;28;20682;-78
2023/09/14 04:02:46;;;;;;;2.63;2.42;;;23.60;62.80;;;;;;5037195;28;20223;-79
2023/09/14 04:05:14;;;;;;;2.45;2.20;;;23.60;62.70;;;;;;5053573;28;20204;-78
2023/09/14 04:07:41;;;;;;;2.47;2.30;;;23.70;62.80;;;;;;5053527;28;20199;-78
2023/09/14 04:10:10;;;;;;;2.80;2.60;;;23.60;63.50;;;;;;5053561;28;20215;-78
2023/09/14 04:12:38;;;;;;;2.50;2.30;;;23.60;62.70;;;;;;5053846;28;20191;-78
2023/09/14 04:15:07;;;;;;;2.78;2.58;;;23.60;62.70;;;;;;5053783;28;20195;-78
2023/09/14 04:17:34;;;;;;;2.60;2.40;;;23.60;62.80;;;;;;5053597;28;20725;-78
2023/09/14 04:20:10;;;;;;;2.70;2.50;;;23.60;62.80;;;;;;5053333;28;20675;-78
2023/09/14 04:22:38;;;;;;;2.60;2.40;;;23.60;62.80;;;;;;5053618;28;20274;-78
2023/09/14 04:25:07;;;;;;;2.47;2.25;;;23.60;62.70;;;;;;5036804;28;20662;-78
2023/09/14 04:27:35;;;;;;;2.75;2.55;;;23.60;62.90;;;;;;5053228;28;20630;-78
2023/09/14 04:30:03;;;;;;;2.42;2.33;;;23.60;62.80;;;;;;5053249;28;20215;-78
2023/09/14 04:32:31;;;;;;;2.45;2.25;;;23.60;62.90;;;;;;5036759;28;20567;-78
2023/09/14 04:34:58;;;;;;;2.90;2.70;;;23.60;62.80;;;;;;5054659;28;20222;-78
2023/09/14 04:37:26;;;;;;;2.65;2.45;;;23.60;62.80;;;;;;5053156;28;20195;-78
2023/09/14 04:39:53;;;;;;;2.60;2.40;;;23.60;62.80;;;;;;5053024;28;20215;-78
2023/09/14 04:42:20;;;;;;;2.70;2.50;;;23.60;62.80;;;;;;5052889;28;20572;-78
2023/09/14 04:44:50;;;;;;;2.50;2.30;;;23.60;62.80;;;;;;5053414;28;20202;-78
2023/09/14 04:47:17;;;;;;;2.42;2.30;;;23.60;62.80;;;;;;5036622;28;20626;-78
2023/09/14 04:49:44;;;;;;;2.53;2.33;;;23.50;62.70;;;;;;5036803;28;20314;-78
2023/09/14 04:52:12;;;;;;;2.60;2.40;;;23.50;62.80;;;;;;5053493;28;20215;-78
2023/09/14 04:54:41;;;;;;;2.50;2.30;;;23.50;62.70;;;;;;5036697;28;20192;-78
2023/09/14 04:57:08;;;;;;;2.75;2.55;;;23.50;62.80;;;;;;5052967;28;20195;-78
2023/09/14 04:59:36;;;;;;;2.42;2.22;;;23.50;62.80;;;;;;5036455;28;20216;-78
2023/09/14 05:02:03;;;;;;;2.30;2.20;;;23.50;62.80;;;;;;5053368;28;20187;-78
2023/09/14 05:04:31;;;;;;;2.50;2.30;;;23.50;62.80;;;;;;5052714;28;20226;-79
2023/09/14 05:06:59;;;;;;;2.42;2.30;;;23.50;62.80;;;;;;5052878;28;20187;-79
2023/09/14 05:09:26;;;;;;;2.42;2.25;;;23.50;62.80;;;;;;5053063;28;20215;-82
2023/09/14 05:11:54;;;;;;;3.28;2.50;;;23.50;62.90;;;;;;5053705;28;20223;-79
2023/09/14 05:14:21;;;;;;;3.63;2.45;;;23.50;62.20;;;;;;5053643;28;20213;-79
2023/09/14 05:16:48;;;;;;;2.50;2.40;;;23.40;60.50;;;;;;5053174;28;20253;-79
2023/09/14 05:19:15;;;;;;;2.53;2.33;;;23.30;60.20;;;;;;5053408;28;20221;-79
2023/09/14 05:21:42;;;;;;;3.20;2.80;;;23.10;60.30;;;;;;5053083;28;20188;-79
2023/09/14 05:24:10;;;;;;;3.13;2.92;;;22.90;59.60;;;;;;5037266;28;20199;-79
2023/09/14 05:26:36;;;;;;;2.63;2.42;;;22.70;59.80;;;;;;5054721;28;20202;-79
2023/09/14 05:29:05;;;;;;;3.05;2.80;;;22.50;60.10;;;;;;5053131;28;20211;-79
2023/09/14 05:31:32;;;;;;;3.75;2.70;;;22.40;60.30;;;;;;5054399;28;20215;-79
2023/09/14 05:33:59;;;;;;;3.05;2.80;;;22.20;60.50;;;;;;5057653;28;20195;-79
2023/09/14 05:36:27;;;;;;;3.38;2.70;;;22.20;60.70;;;;;;5056882;28;20207;-79
2023/09/14 05:38:54;;;;;;;5.53;2.85;;;22.20;60.60;;;;;;5056876;28;20566;-79
2023/09/14 05:41:20;;;;;;;3.22;2.90;;;22.10;60.60;;;;;;5056914;28;20199;-79
2023/09/14 05:43:47;;;;;;;3.55;2.90;;;22.10;60.70;;;;;;5057092;28;20729;-79
2023/09/14 05:46:16;;;;;;;3.70;2.92;;;22.00;60.90;;;;;;5056946;28;20261;-80
2023/09/14 05:48:43;;;;;;;2.92;2.72;;;21.90;61.70;;;;;;5056539;28;20191;-79
2023/09/14 05:51:10;;;;;;;2.75;2.53;;;21.70;62.20;;;;;;5056555;28;20215;-80
2023/09/14 05:53:37;;;;;;;2.92;2.60;;;21.90;62.80;;;;;;5057006;28;20665;-79
2023/09/14 05:56:05;;;;;;;3.33;2.70;;;22.00;62.30;;;;;;5057552;28;20196;-79
2023/09/14 05:58:34;;;;;;;3.70;2.90;;;22.10;62.50;;;;;;5056314;28;20194;-79
2023/09/14 06:01:03;;;;;;;3.10;2.67;;;22.20;62.00;;;;;;5056680;28;20265;-79
2023/09/14 06:03:31;;;;;;;2.42;2.22;;;22.30;62.10;;;;;;5057116;28;20544;-79
2023/09/14 06:05:59;;;;;;;3.05;2.60;;;22.40;62.00;;;;;;5055934;28;20225;-79
2023/09/14 06:08:26;;;;;;;2.72;2.53;;;22.40;61.80;;;;;;5057381;28;20286;-79
2023/09/14 06:10:54;;;;;;;2.67;2.47;;;22.60;61.80;;;;;;5039462;28;20748;-79
2023/09/14 06:13:21;;;;;;;2.90;2.60;;;22.60;61.50;;;;;;5055993;28;20557;-79
2023/09/14 06:15:48;;;;;;;3.28;2.63;;;22.70;61.40;;;;;;5039381;28;20204;-81
2023/09/14 06:18:15;;;;;;;3.00;2.80;;;22.80;61.40;;;;;;5056299;28;20284;-80
2023/09/14 06:20:44;;;;;;;3.90;2.58;;;22.80;61.00;;;;;;5055659;28;20226;-81
2023/09/14 06:23:11;;;;;;;3.10;2.50;;;22.90;61.00;;;;;;5039760;28;20202;-80
2023/09/14 06:25:38;;;;;;;3.15;2.85;;;22.90;61.00;;;;;;5039437;28;20199;-80
2023/09/14 06:28:05;;;;;;;3.40;2.47;;;22.90;60.90;;;;;;5055869;28;20248;-80
2023/09/14 06:30:33;;;;;;;2.70;2.50;;;23.00;60.80;;;;;;5055772;28;20247;-80
2023/09/14 06:33:00;;;;;;;3.55;2.80;;;23.00;60.60;;;;;;5056264;28;20241;-80
2023/09/14 06:35:27;;;;;;;3.50;2.40;;;23.10;60.40;;;;;;5055958;28;20244;-80
2023/09/14 06:37:56;;;;;;;4.75;2.75;;;23.10;60.40;;;;;;5055550;28;20646;-80
2023/09/14 06:40:24;;;;;;;3.22;2.40;;;23.20;60.40;;;;;;5055897;28;20219;-80
2023/09/14 06:42:51;;;;;;;2.50;2.30;;;23.20;60.30;;;;;;5054695;28;20191;-80
2023/09/14 06:45:18;;;;;;;2.60;2.40;;;23.20;60.30;;;;;;5055133;28;20207;-80
2023/09/14 06:47:46;;;;;;;2.90;2.70;;;23.30;60.30;;;;;;5055833;28;20299;-80
2023/09/14 06:50:13;;;;;;;3.13;2.65;;;23.30;60.10;;;;;;5055244;28;20215;-80
2023/09/14 06:52:40;;;;;;;3.03;2.78;;;23.30;60.10;;;;;;5038802;28;20239;-80
2023/09/14 06:55:09;;;;;;;3.30;2.85;;;23.30;59.90;;;;;;5055044;28;20198;-80
2023/09/14 06:57:36;;;;;;;2.95;2.35;;;23.40;59.90;;;;;;5055180;28;20203;-80
2023/09/14 07:00:15;;;;;;;2.92;2.50;;;23.40;59.90;;;;;;5055127;28;20215;-80
2023/09/14 07:05:10;;;;;;;2.50;2.30;;;23.40;60.00;;;;;;5056053;28;20204;-79
2023/09/14 07:07:37;;;;;;;2.72;2.53;;;23.40;60.00;;;;;;5042356;28;20341;-79
2023/09/14 07:10:05;;;;;;;2.65;2.45;;;23.50;59.90;;;;;;5058410;28;20662;-79
2023/09/14 07:12:34;;;;;;;3.58;2.50;;;23.50;59.90;;;;;;5059238;28;20211;-79
2023/09/14 07:15:02;;;;;;;2.58;2.38;;;23.50;59.80;;;;;;5057947;28;20203;-79
2023/09/14 07:17:29;;;;;;;3.53;2.80;;;23.50;59.70;;;;;;5057339;28;20209;-79
2023/09/14 07:19:57;;;;;;;2.50;2.30;;;23.50;59.70;;;;;;5058525;28;20211;-79
2023/09/14 07:22:23;;;;;;;2.65;2.45;;;23.50;59.80;;;;;;5057321;28;20206;-79
2023/09/14 07:24:53;;;;;;;2.70;2.30;;;23.50;59.80;;;;;;5057789;28;20206;-80
2023/09/14 07:27:22;;;;;;;2.50;2.30;;;23.50;59.80;;;;;;5040986;28;20272;-80
2023/09/14 07:29:51;;;;;;;3.20;2.50;;;23.50;59.70;;;;;;5058250;28;20203;-79
2023/09/14 07:32:18;;;;;;;2.65;2.40;;;23.60;59.70;;;;;;5058370;28;20207;-79
2023/09/14 07:34:46;;;;;;;2.65;2.45;;;23.60;59.60;;;;;;5056698;28;20580;-79
2023/09/14 07:37:13;;;;;;;2.83;2.63;;;23.60;59.60;;;;;;5056509;28;20217;-80
2023/09/14 07:39:40;;;;;;;3.03;2.70;;;23.60;59.60;;;;;;5056895;28;20230;-80
2023/09/14 07:42:07;;;;;;;2.63;2.42;;;23.60;59.50;;;;;;5057080;28;20546;-80
2023/09/14 07:44:34;;;;;;;2.72;2.40;;;23.60;59.60;;;;;;5056250;28;20199;-80
2023/09/14 07:47:03;;;;;;;2.80;2.50;;;23.60;59.60;;;;;;5056381;28;20274;-80
2023/09/14 07:49:30;;;;;;;2.50;2.15;;;23.60;59.70;;;;;;5039715;28;20280;-80
2023/09/14 07:51:57;;;;;;;2.75;2.53;;;23.60;59.70;;;;;;5056037;28;20219;-80
2023/09/14 07:54:24;;;;;;;2.45;2.25;;;23.60;59.70;;;;;;5056014;28;20199;-80
2023/09/14 07:56:51;;;;;;;2.50;2.30;;;23.60;59.80;;;;;;5056827;28;20199;-80
2023/09/14 07:59:18;;;;;;;3.40;2.60;;;23.60;59.70;;;;;;5055569;28;20284;-80
2023/09/14 08:01:45;;;;;;;3.25;2.17;;;23.60;59.70;;;;;;5056133;28;20187;-80
2023/09/14 08:04:14;;;;;;;2.65;2.38;;;23.60;59.70;;;;;;5055542;28;20215;-80
2023/09/14 08:06:42;;;;;;;2.67;2.47;;;23.60;59.70;;;;;;5055873;28;20265;-80
2023/09/14 08:09:09;;;;;;;3.15;2.53;;;23.60;59.70;;;;;;5039194;28;20326;-80
2023/09/14 08:11:37;;;;;;;2.70;2.50;;;23.60;59.70;;;;;;5058405;28;20658;-79
2023/09/14 08:14:04;;;;;;;2.47;2.28;;;23.60;59.70;;;;;;5058287;28;20191;-80
2023/09/14 08:16:32;;;;;;;2.65;2.45;;;23.60;59.70;;;;;;5057772;28;20203;-80
2023/09/14 08:18:59;;;;;;;2.60;2.40;;;23.60;59.70;;;;;;5057080;28;20199;-80
2023/09/14 08:21:28;;;;;;;2.78;2.50;;;23.60;59.70;;;;;;5056077;28;20214;-80
2023/09/14 08:23:55;;;;;;;2.38;2.20;;;23.60;59.80;;;;;;5055104;28;20195;-79
2023/09/14 08:26:23;;;;;;;2.47;2.28;;;23.60;59.80;;;;;;5055485;28;20209;-79
2023/09/14 08:28:51;;;;;;;2.60;2.40;;;23.60;59.80;;;;;;5022248;28;20202;-80
2023/09/14 08:31:18;;;;;;;2.83;2.63;;;23.60;59.80;;;;;;5056651;28;20274;-79
2023/09/14 08:33:45;;;;;;;3.00;2.60;;;23.60;59.80;;;;;;5057471;28;20627;-79
2023/09/14 08:36:12;;;;;;;2.75;2.50;;;23.60;59.70;;;;;;5040832;28;20192;-79
2023/09/14 08:38:41;;;;;;;2.75;2.55;;;23.60;59.70;;;;;;5057247;28;20227;-79
2023/09/14 08:41:11;;;;;;;2.63;2.42;;;23.60;59.70;;;;;;5040158;28;20230;-79
2023/09/14 08:43:39;;;;;;;2.92;2.50;;;23.60;59.60;;;;;;5056134;28;20198;-79
2023/09/14 08:46:07;;;;;;;2.92;2.65;;;23.70;59.60;;;;;;5055729;28;20205;-79
2023/09/14 08:48:36;;;;;;;3.00;2.53;;;23.70;59.60;;;;;;5054549;28;20249;-80
2023/09/14 08:51:04;;;;;;;3.00;2.70;;;23.70;59.40;;;;;;5037970;28;20273;-80
2023/09/14 08:53:32;;;;;;;2.78;2.58;;;23.70;59.40;;;;;;5054434;28;20645;-80
2023/09/14 08:56:00;;;;;;;2.80;2.60;;;23.70;59.40;;;;;;5055062;28;20214;-80
2023/09/14 08:58:28;;;;;;;2.65;2.45;;;23.70;59.30;;;;;;5054395;28;20199;-80
2023/09/14 09:00:56;;;;;;;2.70;2.50;;;23.80;59.30;;;;;;5037875;28;20222;-80
2023/09/14 09:03:24;;;;;;;2.63;2.42;;;23.80;59.20;;;;;;5054377;28;20203;-80
2023/09/14 09:05:51;;;;;;;3.00;2.58;;;23.80;59.20;;;;;;5054121;28;20602;-80
2023/09/14 09:08:20;;;;;;;2.67;2.47;;;23.80;59.00;;;;;;5037836;28;20268;-80
2023/09/14 09:10:47;;;;;;;3.13;2.70;;;23.90;59.10;;;;;;5054366;28;20717;-80
2023/09/14 09:13:15;;;;;;;2.60;2.40;;;23.90;59.00;;;;;;5053995;28;20360;-79
2023/09/14 09:15:43;;;;;;;2.80;2.50;;;23.90;58.90;;;;;;5054188;28;20203;-79
2023/09/14 09:18:11;;;;;;;2.40;2.22;;;23.90;58.80;;;;;;5054212;28;20206;-79
2023/09/14 09:20:40;;;;;;;2.22;2.13;;;24.00;58.80;;;;;;5054027;28;20309;-79
2023/09/14 09:23:08;;;;;;;3.00;2.70;;;23.90;58.70;;;;;;5053537;28;20249;-79
2023/09/14 09:25:45;;;;;;;2.88;2.67;;;24.00;58.70;;;;;;5054125;28;20675;-79
2023/09/14 09:28:12;;;;;;;2.80;2.60;;;24.00;58.60;;;;;;5054122;28;20252;-79
2023/09/14 09:30:40;;;;;;;2.83;2.60;;;24.00;58.50;;;;;;5053938;28;20215;-79
2023/09/14 09:33:08;;;;;;;2.70;2.50;;;24.00;58.50;;;;;;5053990;28;20218;-79
2023/09/14 09:35:35;;;;;;;2.67;2.47;;;24.10;58.60;;;;;;5054227;28;20257;-79
2023/09/14 09:38:13;;;;;;;2.92;2.72;;;24.00;58.50;;;;;;5054309;28;20199;-79
2023/09/14 09:40:41;;;;;;;2.45;2.25;;;24.10;58.50;;;;;;5054354;28;20223;-79
2023/09/14 09:43:09;;;;;;;2.80;2.60;;;24.10;58.50;;;;;;5054913;28;20195;-79
2023/09/14 09:45:42;;;;;;;2.88;2.67;;;24.10;58.30;;;;;;5037327;28;20290;-79
2023/09/14 09:48:09;;;;;;;2.95;2.65;;;24.20;58.30;;;;;;5053977;28;20199;-79
2023/09/14 09:50:37;;;;;;;3.30;2.33;;;24.20;58.30;;;;;;5053702;28;20219;-79
2023/09/14 09:53:07;;;;;;;2.80;2.60;;;24.20;58.20;;;;;;5053782;28;20219;-79
2023/09/14 09:55:34;;;;;;;4.10;2.60;;;24.20;58.20;;;;;;5053707;28;20215;-79
2023/09/14 09:58:01;;;;;;;2.53;2.33;;;24.20;58.10;;;;;;5053868;28;20195;-79
2023/09/14 10:00:31;;;;;;;2.75;2.55;;;24.30;58.00;;;;;;5053350;28;20218;-79
2023/09/14 10:03:01;;;;;;;2.83;2.60;;;24.20;57.90;;;;;;5053440;28;20669;-79
2023/09/14 10:05:29;;;;;;;2.70;2.50;;;24.30;58.00;;;;;;5037272;28;20213;-79
2023/09/14 10:07:57;;;;;;;2.80;2.60;;;24.30;58.00;;;;;;5054386;28;20230;-79
2023/09/14 10:10:25;;;;;;;3.05;2.80;;;24.30;57.90;;;;;;5053350;28;20588;-79
2023/09/14 10:12:52;;;;;;;3.30;3.00;;;24.30;57.90;;;;;;5054961;28;20763;-79
2023/09/14 10:15:19;;;;;;;3.10;2.80;;;24.30;57.90;;;;;;5037706;28;20249;-80
2023/09/14 10:17:47;;;;;;;3.40;3.03;;;24.30;57.80;;;;;;5055027;28;20199;-79
2023/09/14 10:20:16;;;;;;;3.35;3.05;;;24.30;57.70;;;;;;5059511;28;20257;-80
2023/09/14 10:22:43;;;;;;;3.00;2.80;;;24.40;57.50;;;;;;5057670;28;20221;-79
2023/09/14 10:25:10;;;;;;;3.00;2.80;;;24.40;57.70;;;;;;5058128;28;20187;-79
2023/09/14 10:27:38;;;;;;;2.70;2.50;;;24.50;57.70;;;;;;5057534;28;20195;-80
2023/09/14 10:30:06;;;;;;;2.60;2.40;;;24.40;57.70;;;;;;5058996;28;20265;-80
2023/09/14 10:32:35;;;;;;;3.10;2.70;;;24.50;57.60;;;;;;5057490;28;20227;-80
2023/09/14 10:35:03;;;;;;;3.05;2.85;;;24.50;57.60;;;;;;5041400;28;20195;-80
2023/09/14 10:37:32;;;;;;;3.33;2.63;;;24.50;57.60;;;;;;5058519;28;20256;-80
2023/09/14 10:39:59;;;;;;;2.72;2.45;;;24.50;57.50;;;;;;5056973;28;20668;-80
2023/09/14 10:42:26;;;;;;;3.00;2.75;;;24.50;57.50;;;;;;5057018;28;20620;-79
2023/09/14 10:44:54;;;;;;;3.10;2.80;;;24.50;58.10;;;;;;5057979;28;20195;-79
2023/09/14 10:47:23;;;;;;;2.80;2.60;;;24.50;57.20;;;;;;5058958;28;20199;-79
2023/09/14 10:49:50;;;;;;;2.90;2.63;;;24.60;57.20;;;;;;5058602;28;20598;-79
2023/09/14 10:52:24;;;;;;;2.65;2.45;;;24.60;57.20;;;;;;5057553;28;20298;-79
2023/09/14 10:54:52;;;;;;;2.97;2.72;;;24.60;57.30;;;;;;5057699;28;20182;-79
2023/09/14 10:57:22;;;;;;;2.92;2.70;;;24.70;57.30;;;;;;5057368;28;20199;-80
2023/09/14 10:59:49;;;;;;;2.95;2.65;;;24.70;57.10;;;;;;5058663;28;20286;-79
2023/09/14 11:02:54;;;;;;;2.92;2.72;;;24.70;57.00;;;;;;5040605;28;20187;-80
2023/09/14 11:05:21;;;;;;;3.03;2.50;;;24.70;57.10;;;;;;5058075;28;20195;-80
2023/09/14 11:07:56;;;;;;;2.60;2.40;;;24.70;57.10;;;;;;5058794;28;20643;-79
2023/09/14 11:10:25;;;;;;;3.05;2.80;;;24.70;57.00;;;;;;5058573;28;20272;-80
2023/09/14 11:12:52;;;;;;;3.05;2.65;;;24.80;57.10;;;;;;5059073;28;20583;-79
2023/09/14 11:15:21;;;;;;;2.58;2.38;;;24.80;56.90;;;;;;5057929;28;20195;-79
2023/09/14 11:17:49;;;;;;;2.70;2.50;;;24.80;56.70;;;;;;5042143;28;20194;-79
2023/09/14 11:20:38;;;;;;;3.10;2.63;;;24.90;56.60;;;;;;5058743;28;20309;-80
2023/09/14 11:23:07;;;;;;;2.60;2.40;;;25.00;56.60;;;;;;5056584;28;20290;-80
2023/09/14 11:25:36;;;;;;;2.53;2.40;;;25.00;56.40;;;;;;5056417;28;20202;-80
2023/09/14 11:28:03;;;;;;;2.70;2.50;;;25.00;56.40;;;;;;5056591;28;20252;-80
2023/09/14 11:30:30;;;;;;;2.70;2.45;;;25.10;56.40;;;;;;5056183;28;20623;-80
2023/09/14 11:32:57;;;;;;;2.58;2.38;;;25.10;56.30;;;;;;5056504;28;20273;-80
2023/09/14 11:35:33;;;;;;;2.70;2.50;;;25.10;56.20;;;;;;5056342;28;20190;-80
2023/09/14 11:38:01;;;;;;;2.78;2.58;;;25.20;56.30;;;;;;5057135;28;20240;-80
2023/09/14 11:40:31;;;;;;;2.58;2.38;;;25.10;56.20;;;;;;5058561;28;20218;-80
2023/09/14 11:43:28;;;;;;;2.70;2.50;;;25.20;56.20;;;;;;5057936;28;20194;-80
2023/09/14 11:46:00;;;;;;;2.80;2.60;;;25.20;56.20;;;;;;5057057;28;20207;-80
2023/09/14 11:48:33;;;;;;;2.60;2.40;;;25.30;56.10;;;;;;5057117;28;20190;-80
2023/09/14 11:51:03;;;;;;;2.63;2.40;;;25.30;56.10;;;;;;5039953;28;20222;-80
2023/09/14 11:53:33;;;;;;;2.80;2.60;;;25.30;56.00;;;;;;5057102;28;20254;-80
2023/09/14 11:56:00;;;;;;;2.70;2.50;;;25.30;56.10;;;;;;5056424;28;20191;-80
2023/09/14 11:58:29;;;;;;;3.30;2.67;;;25.30;56.10;;;;;;5056706;28;20202;-80
2023/09/14 12:00:56;;;;;;;2.63;2.42;;;25.30;56.00;;;;;;5038836;28;20219;-80
2023/09/14 12:03:23;;;;;;;2.70;2.50;;;25.40;56.00;;;;;;5055797;28;20253;-80
2023/09/14 12:05:53;;;;;;;2.60;2.40;;;25.40;56.00;;;;;;5056136;28;20191;-80
2023/09/14 12:08:20;;;;;;;2.58;2.38;;;25.40;56.00;;;;;;5057132;28;20548;-80
2023/09/14 12:10:51;;;;;;;3.15;2.50;;;25.40;55.90;;;;;;5056384;28;20242;-80
2023/09/14 12:13:19;;;;;;;3.25;2.35;;;25.40;56.10;;;;;;5056758;28;20222;-80
2023/09/14 12:15:48;;;;;;;2.90;2.60;;;25.40;56.10;;;;;;5056040;28;20634;-80
2023/09/14 12:18:16;;;;;;;2.83;2.42;;;25.40;56.10;;;;;;5055539;28;20286;-80
2023/09/14 12:20:45;;;;;;;2.45;2.25;;;25.40;55.90;;;;;;5055621;28;20217;-80
2023/09/14 12:23:12;;;;;;;2.40;2.20;;;25.40;56.00;;;;;;5059910;28;20608;-80
2023/09/14 12:25:39;;;;;;;2.58;2.38;;;25.40;56.10;;;;;;5065535;28;20256;-80
2023/09/14 12:28:07;;;;;;;2.95;2.28;;;25.50;56.20;;;;;;5060123;28;20293;-79
2023/09/14 12:30:34;;;;;;;2.90;2.70;;;25.50;56.00;;;;;;5058083;28;20215;-80
2023/09/14 12:33:02;;;;;;;2.25;2.05;;;25.50;55.80;;;;;;5055645;28;20244;-80
2023/09/14 12:35:29;;;;;;;2.60;2.40;;;25.50;55.90;;;;;;5054930;28;20206;-80
2023/09/14 12:38:00;;;;;;;2.80;2.60;;;25.50;56.10;;;;;;5054882;28;20293;-80
2023/09/14 12:40:27;;;;;;;2.65;2.45;;;25.50;55.90;;;;;;5054635;28;20367;-80
2023/09/14 12:42:54;;;;;;;2.95;2.25;;;25.50;56.20;;;;;;5064761;28;20218;-80
2023/09/14 12:45:21;;;;;;;2.20;2.10;;;25.40;56.00;;;;;;5066683;28;20244;-80
2023/09/14 12:47:48;;;;;;;2.75;2.55;;;25.40;56.10;;;;;;5065464;28;20202;-80
2023/09/14 12:50:19;;;;;;;2.95;2.70;;;25.40;56.20;;;;;;5065494;28;20218;-80
2023/09/14 12:52:46;;;;;;;2.50;2.30;;;25.40;55.90;;;;;;5066504;28;20191;-80
2023/09/14 12:55:14;;;;;;;3.15;2.47;;;25.40;56.10;;;;;;5065923;28;20218;-80
2023/09/14 12:57:45;;;;;;;2.47;2.28;;;25.40;56.20;;;;;;5066567;28;20289;-80